sensor_id;sensor_type;location;lat;lon;timestamp;temperature;humidity
42135;DHT22;28312;43.460;11.810;2022-11-20T00:02:49;9.20;87.30
42135;DHT22;28312;43.460;11.810;2022-11-20T00:06:52;9.20;87.40
42135;DHT22;28312;43.460;11.810;2022-11-20T00:10:56;9.20;87.50
42135;DHT22;28312;43.460;11.810;2022-11-20T00:15:00;9.20;87.60
42135;DHT22;28312;43.460;11.810;2022-11-20T00:19:03;9.20;87.60
42135;DHT22;28312;43.460;11.810;2022-11-20T00:23:07;9.30;87.50
42135;DHT22;28312;43.460;11.810;2022-11-20T00:27:10;9.30;87.30
42135;DHT22;28312;43.460;11.810;2022-11-20T00:31:15;9.40;87.20
42135;DHT22;28312;43.460;11.810;2022-11-20T00:35:18;9.40;87.20
42135;DHT22;28312;43.460;11.810;2022-11-20T00:39:25;9.40;87.20
42135;DHT22;28312;43.460;11.810;2022-11-20T00:43:29;9.40;87.10
42135;DHT22;28312;43.460;11.810;2022-11-20T00:47:33;9.40;87.10
42135;DHT22;28312;43.460;11.810;2022-11-20T00:51:36;9.40;87.20
42135;DHT22;28312;43.460;11.810;2022-11-20T00:55:40;9.40;87.10
42135;DHT22;28312;43.460;11.810;2022-11-20T00:59:44;9.30;87.20
42135;DHT22;28312;43.460;11.810;2022-11-20T01:03:49;9.30;87.20
42135;DHT22;28312;43.460;11.810;2022-11-20T01:07:53;9.20;87.40
42135;DHT22;28312;43.460;11.810;2022-11-20T01:11:57;9.20;87.60
42135;DHT22;28312;43.460;11.810;2022-11-20T01:16:09;9.10;87.70
42135;DHT22;28312;43.460;11.810;2022-11-20T01:20:13;9.10;87.90
42135;DHT22;28312;43.460;11.810;2022-11-20T01:24:18;9.10;87.90
42135;DHT22;28312;43.460;11.810;2022-11-20T01:28:22;9.10;87.90
42135;DHT22;28312;43.460;11.810;2022-11-20T01:32:26;9.00;88.00
42135;DHT22;28312;43.460;11.810;2022-11-20T01:36:32;9.00;88.00
42135;DHT22;28312;43.460;11.810;2022-11-20T01:40:36;9.00;88.00
42135;DHT22;28312;43.460;11.810;2022-11-20T01:53:16;9.00;88.00
42135;DHT22;28312;43.460;11.810;2022-11-20T01:57:22;9.00;87.90
42135;DHT22;28312;43.460;11.810;2022-11-20T02:01:27;9.00;87.80
42135;DHT22;28312;43.460;11.810;2022-11-20T02:05:38;9.00;87.70
42135;DHT22;28312;43.460;11.810;2022-11-20T02:09:45;9.00;87.90
42135;DHT22;28312;43.460;11.810;2022-11-20T02:13:49;9.00;87.90
42135;DHT22;28312;43.460;11.810;2022-11-20T02:17:54;9.00;87.90
42135;DHT22;28312;43.460;11.810;2022-11-20T02:22:27;9.00;88.00
42135;DHT22;28312;43.460;11.810;2022-11-20T02:26:36;9.00;88.10
42135;DHT22;28312;43.460;11.810;2022-11-20T02:30:41;9.00;88.10
42135;DHT22;28312;43.460;11.810;2022-11-20T02:34:45;9.00;88.20
42135;DHT22;28312;43.460;11.810;2022-11-20T02:38:49;9.00;88.30
42135;DHT22;28312;43.460;11.810;2022-11-20T02:42:54;8.90;88.30
42135;DHT22;28312;43.460;11.810;2022-11-20T02:46:58;9.00;88.30
42135;DHT22;28312;43.460;11.810;2022-11-20T02:51:02;9.00;88.20
42135;DHT22;28312;43.460;11.810;2022-11-20T02:55:06;9.00;88.20
42135;DHT22;28312;43.460;11.810;2022-11-20T02:59:10;9.00;88.20
42135;DHT22;28312;43.460;11.810;2022-11-20T03:03:13;9.00;88.20
42135;DHT22;28312;43.460;11.810;2022-11-20T03:07:17;9.10;88.20
42135;DHT22;28312;43.460;11.810;2022-11-20T03:11:20;9.10;88.20
42135;DHT22;28312;43.460;11.810;2022-11-20T03:15:24;9.10;88.10
42135;DHT22;28312;43.460;11.810;2022-11-20T03:19:28;9.10;88.00
42135;DHT22;28312;43.460;11.810;2022-11-20T03:23:32;9.10;87.80
42135;DHT22;28312;43.460;11.810;2022-11-20T03:27:36;9.10;87.80
42135;DHT22;28312;43.460;11.810;2022-11-20T03:31:40;9.00;87.80
42135;DHT22;28312;43.460;11.810;2022-11-20T03:35:44;9.00;87.80
42135;DHT22;28312;43.460;11.810;2022-11-20T03:39:47;9.00;87.80
42135;DHT22;28312;43.460;11.810;2022-11-20T03:44:02;8.90;87.80
42135;DHT22;28312;43.460;11.810;2022-11-20T03:48:05;8.90;87.80
42135;DHT22;28312;43.460;11.810;2022-11-20T03:52:09;8.80;87.90
42135;DHT22;28312;43.460;11.810;2022-11-20T03:56:14;8.90;88.00
42135;DHT22;28312;43.460;11.810;2022-11-20T04:00:18;8.80;88.00
42135;DHT22;28312;43.460;11.810;2022-11-20T04:04:22;8.80;87.90
42135;DHT22;28312;43.460;11.810;2022-11-20T04:08:25;8.80;87.80
42135;DHT22;28312;43.460;11.810;2022-11-20T04:12:32;8.90;87.50
42135;DHT22;28312;43.460;11.810;2022-11-20T04:16:36;8.80;87.30
42135;DHT22;28312;43.460;11.810;2022-11-20T04:20:39;8.70;87.20
42135;DHT22;28312;43.460;11.810;2022-11-20T04:24:44;8.60;87.30
42135;DHT22;28312;43.460;11.810;2022-11-20T04:28:47;8.60;87.10
42135;DHT22;28312;43.460;11.810;2022-11-20T04:32:51;8.40;87.10
42135;DHT22;28312;43.460;11.810;2022-11-20T04:36:55;8.30;87.20
42135;DHT22;28312;43.460;11.810;2022-11-20T04:41:00;8.30;87.60
42135;DHT22;28312;43.460;11.810;2022-11-20T04:45:04;8.30;87.90
42135;DHT22;28312;43.460;11.810;2022-11-20T04:49:08;8.30;88.10
42135;DHT22;28312;43.460;11.810;2022-11-20T04:53:12;8.30;88.20
42135;DHT22;28312;43.460;11.810;2022-11-20T04:57:15;8.40;88.00
42135;DHT22;28312;43.460;11.810;2022-11-20T05:01:21;8.40;88.10
42135;DHT22;28312;43.460;11.810;2022-11-20T05:05:26;8.50;88.10
42135;DHT22;28312;43.460;11.810;2022-11-20T05:09:30;8.40;88.00
42135;DHT22;28312;43.460;11.810;2022-11-20T05:13:35;8.40;88.00
42135;DHT22;28312;43.460;11.810;2022-11-20T05:17:39;8.40;88.10
42135;DHT22;28312;43.460;11.810;2022-11-20T05:21:43;8.40;88.10
42135;DHT22;28312;43.460;11.810;2022-11-20T05:25:46;8.40;88.20
42135;DHT22;28312;43.460;11.810;2022-11-20T05:29:50;8.40;88.10
42135;DHT22;28312;43.460;11.810;2022-11-20T05:33:55;8.40;88.30
42135;DHT22;28312;43.460;11.810;2022-11-20T05:37:59;8.40;88.40
42135;DHT22;28312;43.460;11.810;2022-11-20T05:42:03;8.30;88.30
42135;DHT22;28312;43.460;11.810;2022-11-20T05:46:26;8.40;88.30
42135;DHT22;28312;43.460;11.810;2022-11-20T05:50:31;8.30;88.40
42135;DHT22;28312;43.460;11.810;2022-11-20T05:54:35;8.40;88.40
42135;DHT22;28312;43.460;11.810;2022-11-20T05:58:39;8.40;88.50
42135;DHT22;28312;43.460;11.810;2022-11-20T06:02:42;8.40;88.50
42135;DHT22;28312;43.460;11.810;2022-11-20T06:06:46;8.50;88.50
42135;DHT22;28312;43.460;11.810;2022-11-20T06:10:49;8.50;88.50
42135;DHT22;28312;43.460;11.810;2022-11-20T06:14:53;8.50;88.40
42135;DHT22;28312;43.460;11.810;2022-11-20T06:18:57;8.50;88.20
42135;DHT22;28312;43.460;11.810;2022-11-20T06:23:00;8.50;88.10
42135;DHT22;28312;43.460;11.810;2022-11-20T06:27:04;8.40;88.20
42135;DHT22;28312;43.460;11.810;2022-11-20T06:31:11;8.40;88.10
42135;DHT22;28312;43.460;11.810;2022-11-20T06:35:15;8.40;87.80
42135;DHT22;28312;43.460;11.810;2022-11-20T06:39:19;8.40;87.70
42135;DHT22;28312;43.460;11.810;2022-11-20T06:43:23;8.30;87.70
42135;DHT22;28312;43.460;11.810;2022-11-20T06:47:33;8.30;87.80
42135;DHT22;28312;43.460;11.810;2022-11-20T06:51:37;8.30;88.00
42135;DHT22;28312;43.460;11.810;2022-11-20T06:55:44;8.30;88.10
42135;DHT22;28312;43.460;11.810;2022-11-20T06:59:48;8.30;88.10
42135;DHT22;28312;43.460;11.810;2022-11-20T07:03:51;8.20;88.10
42135;DHT22;28312;43.460;11.810;2022-11-20T07:07:57;8.20;88.20
42135;DHT22;28312;43.460;11.810;2022-11-20T07:12:01;8.20;88.30
42135;DHT22;28312;43.460;11.810;2022-11-20T07:16:07;8.20;88.60
42135;DHT22;28312;43.460;11.810;2022-11-20T07:20:11;8.30;88.60
42135;DHT22;28312;43.460;11.810;2022-11-20T07:24:14;8.40;88.70
42135;DHT22;28312;43.460;11.810;2022-11-20T07:28:19;8.40;88.70
42135;DHT22;28312;43.460;11.810;2022-11-20T07:32:23;8.50;88.70
42135;DHT22;28312;43.460;11.810;2022-11-20T07:36:26;8.50;88.60
42135;DHT22;28312;43.460;11.810;2022-11-20T07:40:30;8.50;88.80
42135;DHT22;28312;43.460;11.810;2022-11-20T07:44:34;8.60;89.00
42135;DHT22;28312;43.460;11.810;2022-11-20T07:48:42;8.70;89.10
42135;DHT22;28312;43.460;11.810;2022-11-20T07:52:45;8.70;89.10
42135;DHT22;28312;43.460;11.810;2022-11-20T07:56:49;9.10;90.20
42135;DHT22;28312;43.460;11.810;2022-11-20T08:00:52;10.10;91.80
42135;DHT22;28312;43.460;11.810;2022-11-20T08:04:56;11.80;90.80
42135;DHT22;28312;43.460;11.810;2022-11-20T08:08:59;13.30;88.50
42135;DHT22;28312;43.460;11.810;2022-11-20T08:13:03;14.60;87.00
42135;DHT22;28312;43.460;11.810;2022-11-20T08:17:24;15.80;84.80
42135;DHT22;28312;43.460;11.810;2022-11-20T08:21:30;16.30;83.90
42135;DHT22;28312;43.460;11.810;2022-11-20T08:25:40;16.70;83.20
42135;DHT22;28312;43.460;11.810;2022-11-20T08:29:43;17.40;83.30
42135;DHT22;28312;43.460;11.810;2022-11-20T08:33:47;18.10;82.20
42135;DHT22;28312;43.460;11.810;2022-11-20T08:37:50;18.70;82.30
42135;DHT22;28312;43.460;11.810;2022-11-20T08:41:54;19.20;81.60
42135;DHT22;28312;43.460;11.810;2022-11-20T08:45:58;19.70;80.30
42135;DHT22;28312;43.460;11.810;2022-11-20T08:50:06;20.20;80.20
42135;DHT22;28312;43.460;11.810;2022-11-20T08:54:09;20.70;79.40
42135;DHT22;28312;43.460;11.810;2022-11-20T08:58:13;20.80;77.30
42135;DHT22;28312;43.460;11.810;2022-11-20T09:02:16;20.50;76.40
42135;DHT22;28312;43.460;11.810;2022-11-20T09:06:20;20.20;78.20
42135;DHT22;28312;43.460;11.810;2022-11-20T09:10:23;20.10;77.60
42135;DHT22;28312;43.460;11.810;2022-11-20T09:14:27;20.10;78.00
42135;DHT22;28312;43.460;11.810;2022-11-20T09:18:34;20.00;77.30
42135;DHT22;28312;43.460;11.810;2022-11-20T09:22:40;19.90;77.40
42135;DHT22;28312;43.460;11.810;2022-11-20T09:26:44;20.00;77.70
42135;DHT22;28312;43.460;11.810;2022-11-20T09:30:47;20.00;77.10
42135;DHT22;28312;43.460;11.810;2022-11-20T09:34:51;20.20;77.00
42135;DHT22;28312;43.460;11.810;2022-11-20T09:38:55;20.10;75.60
42135;DHT22;28312;43.460;11.810;2022-11-20T09:52:09;20.30;75.50
42135;DHT22;28312;43.460;11.810;2022-11-20T09:56:17;20.60;74.70
42135;DHT22;28312;43.460;11.810;2022-11-20T10:00:25;20.70;72.70
42135;DHT22;28312;43.460;11.810;2022-11-20T10:04:31;20.60;71.70
42135;DHT22;28312;43.460;11.810;2022-11-20T10:08:50;20.50;71.40
42135;DHT22;28312;43.460;11.810;2022-11-20T10:22:16;20.30;69.40
42135;DHT22;28312;43.460;11.810;2022-11-20T10:26:32;20.40;68.60
42135;DHT22;28312;43.460;11.810;2022-11-20T10:30:42;20.60;68.00
42135;DHT22;28312;43.460;11.810;2022-11-20T10:34:54;20.70;67.80
42135;DHT22;28312;43.460;11.810;2022-11-20T10:39:14;20.90;66.80
42135;DHT22;28312;43.460;11.810;2022-11-20T10:43:38;21.10;65.60
42135;DHT22;28312;43.460;11.810;2022-11-20T10:47:42;20.90;63.60
42135;DHT22;28312;43.460;11.810;2022-11-20T10:56:19;20.90;62.40
42135;DHT22;28312;43.460;11.810;2022-11-20T11:00:25;20.80;61.80
42135;DHT22;28312;43.460;11.810;2022-11-20T11:04:41;20.80;61.20
42135;DHT22;28312;43.460;11.810;2022-11-20T11:08:47;21.00;61.30
42135;DHT22;28312;43.460;11.810;2022-11-20T11:12:52;21.20;59.80
42135;DHT22;28312;43.460;11.810;2022-11-20T11:16:57;21.10;59.60
42135;DHT22;28312;43.460;11.810;2022-11-20T11:21:03;21.20;59.60
42135;DHT22;28312;43.460;11.810;2022-11-20T11:25:09;21.30;59.90
42135;DHT22;28312;43.460;11.810;2022-11-20T11:29:17;21.60;59.50
42135;DHT22;28312;43.460;11.810;2022-11-20T11:33:25;21.60;58.50
42135;DHT22;28312;43.460;11.810;2022-11-20T11:37:38;21.60;57.90
42135;DHT22;28312;43.460;11.810;2022-11-20T11:41:43;21.60;57.50
42135;DHT22;28312;43.460;11.810;2022-11-20T11:45:52;21.40;56.70
42135;DHT22;28312;43.460;11.810;2022-11-20T11:50:07;21.40;57.70
42135;DHT22;28312;43.460;11.810;2022-11-20T11:54:22;21.60;56.40
42135;DHT22;28312;43.460;11.810;2022-11-20T12:03:12;21.40;55.60
42135;DHT22;28312;43.460;11.810;2022-11-20T12:11:54;21.10;55.60
42135;DHT22;28312;43.460;11.810;2022-11-20T12:16:00;21.30;55.70
42135;DHT22;28312;43.460;11.810;2022-11-20T12:20:14;21.20;54.40
42135;DHT22;28312;43.460;11.810;2022-11-20T12:24:39;20.50;55.10
42135;DHT22;28312;43.460;11.810;2022-11-20T12:28:59;20.40;55.20
42135;DHT22;28312;43.460;11.810;2022-11-20T12:42:41;21.00;55.70
42135;DHT22;28312;43.460;11.810;2022-11-20T12:56:27;21.30;54.20
42135;DHT22;28312;43.460;11.810;2022-11-20T13:00:36;21.10;53.80
42135;DHT22;28312;43.460;11.810;2022-11-20T13:09:20;20.60;53.90
42135;DHT22;28312;43.460;11.810;2022-11-20T13:17:47;20.30;52.80
42135;DHT22;28312;43.460;11.810;2022-11-20T13:21:54;20.20;52.90
42135;DHT22;28312;43.460;11.810;2022-11-20T13:26:18;20.00;52.40
42135;DHT22;28312;43.460;11.810;2022-11-20T13:30:27;19.70;52.80
42135;DHT22;28312;43.460;11.810;2022-11-20T13:34:31;19.60;52.20
42135;DHT22;28312;43.460;11.810;2022-11-20T13:38:46;19.50;52.00
42135;DHT22;28312;43.460;11.810;2022-11-20T13:47:24;19.20;52.60
42135;DHT22;28312;43.460;11.810;2022-11-20T13:51:41;19.20;51.90
42135;DHT22;28312;43.460;11.810;2022-11-20T13:55:58;18.40;51.30
42135;DHT22;28312;43.460;11.810;2022-11-20T14:00:16;17.60;51.10
42135;DHT22;28312;43.460;11.810;2022-11-20T14:04:43;16.60;51.80
42135;DHT22;28312;43.460;11.810;2022-11-20T14:08:50;16.20;53.60
42135;DHT22;28312;43.460;11.810;2022-11-20T14:12:54;16.50;55.30
42135;DHT22;28312;43.460;11.810;2022-11-20T14:17:19;17.00;55.30
42135;DHT22;28312;43.460;11.810;2022-11-20T14:21:29;17.50;54.90
42135;DHT22;28312;43.460;11.810;2022-11-20T14:25:33;17.80;54.10
42135;DHT22;28312;43.460;11.810;2022-11-20T14:29:38;18.00;53.80
42135;DHT22;28312;43.460;11.810;2022-11-20T14:33:42;17.80;52.50
42135;DHT22;28312;43.460;11.810;2022-11-20T14:37:45;17.30;52.70
42135;DHT22;28312;43.460;11.810;2022-11-20T14:41:53;16.70;52.90
42135;DHT22;28312;43.460;11.810;2022-11-20T14:46:03;16.20;53.20
42135;DHT22;28312;43.460;11.810;2022-11-20T14:50:23;15.60;53.50
42135;DHT22;28312;43.460;11.810;2022-11-20T14:54:27;15.20;53.90
42135;DHT22;28312;43.460;11.810;2022-11-20T14:58:34;14.70;54.30
42135;DHT22;28312;43.460;11.810;2022-11-20T15:02:43;14.40;54.60
42135;DHT22;28312;43.460;11.810;2022-11-20T15:06:54;14.10;54.90
42135;DHT22;28312;43.460;11.810;2022-11-20T15:10:58;13.70;55.20
42135;DHT22;28312;43.460;11.810;2022-11-20T15:15:03;13.40;55.60
42135;DHT22;28312;43.460;11.810;2022-11-20T15:19:18;13.20;55.90
42135;DHT22;28312;43.460;11.810;2022-11-20T15:23:27;13.00;56.00
42135;DHT22;28312;43.460;11.810;2022-11-20T15:27:31;12.80;56.10
42135;DHT22;28312;43.460;11.810;2022-11-20T15:31:34;12.60;56.10
42135;DHT22;28312;43.460;11.810;2022-11-20T15:35:38;12.20;56.20
42135;DHT22;28312;43.460;11.810;2022-11-20T15:39:42;11.90;56.50
42135;DHT22;28312;43.460;11.810;2022-11-20T15:43:45;11.60;56.60
42135;DHT22;28312;43.460;11.810;2022-11-20T15:47:49;11.40;56.60
42135;DHT22;28312;43.460;11.810;2022-11-20T15:51:53;11.10;56.80
42135;DHT22;28312;43.460;11.810;2022-11-20T15:55:57;10.90;56.90
42135;DHT22;28312;43.460;11.810;2022-11-20T16:00:00;10.70;56.90
42135;DHT22;28312;43.460;11.810;2022-11-20T16:04:15;10.40;56.90
42135;DHT22;28312;43.460;11.810;2022-11-20T16:08:19;9.90;57.40
42135;DHT22;28312;43.460;11.810;2022-11-20T16:12:25;9.50;58.10
42135;DHT22;28312;43.460;11.810;2022-11-20T16:16:48;9.30;58.00
42135;DHT22;28312;43.460;11.810;2022-11-20T16:20:53;9.00;58.20
42135;DHT22;28312;43.460;11.810;2022-11-20T16:24:57;8.80;58.40
42135;DHT22;28312;43.460;11.810;2022-11-20T16:29:03;8.50;58.60
42135;DHT22;28312;43.460;11.810;2022-11-20T16:33:12;8.10;59.10
42135;DHT22;28312;43.460;11.810;2022-11-20T16:37:15;7.90;59.20
42135;DHT22;28312;43.460;11.810;2022-11-20T16:41:19;7.70;59.20
42135;DHT22;28312;43.460;11.810;2022-11-20T16:45:23;7.40;59.50
42135;DHT22;28312;43.460;11.810;2022-11-20T16:49:33;7.20;60.00
42135;DHT22;28312;43.460;11.810;2022-11-20T16:53:38;7.00;60.10
42135;DHT22;28312;43.460;11.810;2022-11-20T16:57:41;6.90;60.30
42135;DHT22;28312;43.460;11.810;2022-11-20T17:01:46;6.70;60.40
42135;DHT22;28312;43.460;11.810;2022-11-20T17:05:52;6.70;60.40
42135;DHT22;28312;43.460;11.810;2022-11-20T17:09:55;6.50;60.50
42135;DHT22;28312;43.460;11.810;2022-11-20T17:14:00;6.40;60.60
42135;DHT22;28312;43.460;11.810;2022-11-20T17:18:09;6.20;60.80
42135;DHT22;28312;43.460;11.810;2022-11-20T17:22:13;6.20;60.90
42135;DHT22;28312;43.460;11.810;2022-11-20T17:26:20;6.10;61.00
42135;DHT22;28312;43.460;11.810;2022-11-20T17:30:26;6.00;61.30
42135;DHT22;28312;43.460;11.810;2022-11-20T17:34:30;5.90;61.30
42135;DHT22;28312;43.460;11.810;2022-11-20T17:38:34;5.70;61.40
42135;DHT22;28312;43.460;11.810;2022-11-20T17:42:38;5.60;61.40
42135;DHT22;28312;43.460;11.810;2022-11-20T17:46:41;5.50;61.60
42135;DHT22;28312;43.460;11.810;2022-11-20T17:50:45;5.30;61.70
42135;DHT22;28312;43.460;11.810;2022-11-20T17:54:49;5.10;62.10
42135;DHT22;28312;43.460;11.810;2022-11-20T17:58:58;5.00;62.30
42135;DHT22;28312;43.460;11.810;2022-11-20T18:03:06;4.90;62.50
42135;DHT22;28312;43.460;11.810;2022-11-20T18:07:12;4.80;62.60
42135;DHT22;28312;43.460;11.810;2022-11-20T18:11:38;4.80;62.90
42135;DHT22;28312;43.460;11.810;2022-11-20T18:15:42;4.70;63.00
42135;DHT22;28312;43.460;11.810;2022-11-20T18:19:46;4.70;63.10
42135;DHT22;28312;43.460;11.810;2022-11-20T18:24:11;4.70;63.30
42135;DHT22;28312;43.460;11.810;2022-11-20T18:28:14;4.60;63.50
42135;DHT22;28312;43.460;11.810;2022-11-20T18:32:20;4.70;64.10
42135;DHT22;28312;43.460;11.810;2022-11-20T18:36:26;4.80;64.50
42135;DHT22;28312;43.460;11.810;2022-11-20T18:40:31;5.00;64.20
42135;DHT22;28312;43.460;11.810;2022-11-20T18:44:36;4.90;63.90
42135;DHT22;28312;43.460;11.810;2022-11-20T18:48:58;4.80;63.70
42135;DHT22;28312;43.460;11.810;2022-11-20T18:53:02;4.70;63.80
42135;DHT22;28312;43.460;11.810;2022-11-20T18:57:05;4.70;63.70
42135;DHT22;28312;43.460;11.810;2022-11-20T19:01:09;4.60;63.60
42135;DHT22;28312;43.460;11.810;2022-11-20T19:05:13;4.50;63.80
42135;DHT22;28312;43.460;11.810;2022-11-20T19:09:17;4.40;64.10
42135;DHT22;28312;43.460;11.810;2022-11-20T19:13:21;4.40;64.10
42135;DHT22;28312;43.460;11.810;2022-11-20T19:17:24;4.40;64.10
42135;DHT22;28312;43.460;11.810;2022-11-20T19:21:28;4.20;64.30
42135;DHT22;28312;43.460;11.810;2022-11-20T19:25:32;4.10;64.50
42135;DHT22;28312;43.460;11.810;2022-11-20T19:29:40;4.10;64.50
42135;DHT22;28312;43.460;11.810;2022-11-20T19:33:44;4.00;64.40
42135;DHT22;28312;43.460;11.810;2022-11-20T19:37:47;4.00;64.50
42135;DHT22;28312;43.460;11.810;2022-11-20T19:41:51;3.80;64.70
42135;DHT22;28312;43.460;11.810;2022-11-20T19:45:54;3.80;64.90
42135;DHT22;28312;43.460;11.810;2022-11-20T19:49:58;3.80;65.00
42135;DHT22;28312;43.460;11.810;2022-11-20T19:54:03;3.70;65.20
42135;DHT22;28312;43.460;11.810;2022-11-20T19:58:07;3.70;65.30
42135;DHT22;28312;43.460;11.810;2022-11-20T20:02:10;3.60;65.40
42135;DHT22;28312;43.460;11.810;2022-11-20T20:06:17;3.60;65.40
42135;DHT22;28312;43.460;11.810;2022-11-20T20:10:21;3.60;65.40
42135;DHT22;28312;43.460;11.810;2022-11-20T20:14:25;3.70;65.40
42135;DHT22;28312;43.460;11.810;2022-11-20T20:18:28;3.70;65.70
42135;DHT22;28312;43.460;11.810;2022-11-20T20:22:32;3.80;65.90
42135;DHT22;28312;43.460;11.810;2022-11-20T20:26:35;3.90;66.20
42135;DHT22;28312;43.460;11.810;2022-11-20T20:30:39;4.00;66.20
42135;DHT22;28312;43.460;11.810;2022-11-20T20:34:42;4.00;66.10
42135;DHT22;28312;43.460;11.810;2022-11-20T20:38:50;4.00;66.30
42135;DHT22;28312;43.460;11.810;2022-11-20T20:42:53;4.10;66.40
42135;DHT22;28312;43.460;11.810;2022-11-20T20:46:57;4.20;66.50
42135;DHT22;28312;43.460;11.810;2022-11-20T20:51:00;4.20;66.50
42135;DHT22;28312;43.460;11.810;2022-11-20T20:55:10;4.30;66.60
42135;DHT22;28312;43.460;11.810;2022-11-20T20:59:14;4.50;66.60
42135;DHT22;28312;43.460;11.810;2022-11-20T21:03:18;4.60;66.70
42135;DHT22;28312;43.460;11.810;2022-11-20T21:07:22;4.70;66.80
42135;DHT22;28312;43.460;11.810;2022-11-20T21:11:26;4.80;66.60
42135;DHT22;28312;43.460;11.810;2022-11-20T21:15:30;4.80;66.50
42135;DHT22;28312;43.460;11.810;2022-11-20T21:19:34;4.80;66.30
42135;DHT22;28312;43.460;11.810;2022-11-20T21:23:37;4.70;66.20
42135;DHT22;28312;43.460;11.810;2022-11-20T21:27:41;4.60;66.20
42135;DHT22;28312;43.460;11.810;2022-11-20T21:31:45;4.50;66.10
42135;DHT22;28312;43.460;11.810;2022-11-20T21:35:48;4.30;66.00
42135;DHT22;28312;43.460;11.810;2022-11-20T21:39:52;4.30;65.90
42135;DHT22;28312;43.460;11.810;2022-11-20T21:43:56;4.20;65.90
42135;DHT22;28312;43.460;11.810;2022-11-20T21:48:21;4.00;66.00
42135;DHT22;28312;43.460;11.810;2022-11-20T21:52:25;3.80;66.00
42135;DHT22;28312;43.460;11.810;2022-11-20T21:56:28;3.50;66.30
42135;DHT22;28312;43.460;11.810;2022-11-20T22:00:34;3.40;66.60
42135;DHT22;28312;43.460;11.810;2022-11-20T22:04:39;3.30;66.90
42135;DHT22;28312;43.460;11.810;2022-11-20T22:08:43;3.30;67.00
42135;DHT22;28312;43.460;11.810;2022-11-20T22:12:48;3.40;67.20
42135;DHT22;28312;43.460;11.810;2022-11-20T22:16:52;3.50;67.40
42135;DHT22;28312;43.460;11.810;2022-11-20T22:20:56;3.60;67.40
42135;DHT22;28312;43.460;11.810;2022-11-20T22:24:59;3.60;67.30
42135;DHT22;28312;43.460;11.810;2022-11-20T22:29:04;3.50;67.30
42135;DHT22;28312;43.460;11.810;2022-11-20T22:33:08;3.40;67.30
42135;DHT22;28312;43.460;11.810;2022-11-20T22:37:15;3.40;67.20
42135;DHT22;28312;43.460;11.810;2022-11-20T22:41:25;3.20;67.30
42135;DHT22;28312;43.460;11.810;2022-11-20T22:45:31;3.10;67.40
42135;DHT22;28312;43.460;11.810;2022-11-20T22:49:35;3.10;67.20
42135;DHT22;28312;43.460;11.810;2022-11-20T22:53:40;3.10;67.40
42135;DHT22;28312;43.460;11.810;2022-11-20T22:57:43;3.00;67.50
42135;DHT22;28312;43.460;11.810;2022-11-20T23:01:47;2.90;67.50
42135;DHT22;28312;43.460;11.810;2022-11-20T23:05:50;2.90;67.60
42135;DHT22;28312;43.460;11.810;2022-11-20T23:09:54;2.80;67.80
42135;DHT22;28312;43.460;11.810;2022-11-20T23:14:06;2.80;67.80
42135;DHT22;28312;43.460;11.810;2022-11-20T23:18:11;2.70;68.10
42135;DHT22;28312;43.460;11.810;2022-11-20T23:22:14;2.80;68.20
42135;DHT22;28312;43.460;11.810;2022-11-20T23:26:19;2.80;68.20
42135;DHT22;28312;43.460;11.810;2022-11-20T23:30:24;2.80;68.30
42135;DHT22;28312;43.460;11.810;2022-11-20T23:34:27;2.80;68.40
42135;DHT22;28312;43.460;11.810;2022-11-20T23:38:31;2.90;68.60
42135;DHT22;28312;43.460;11.810;2022-11-20T23:42:35;3.00;68.60
42135;DHT22;28312;43.460;11.810;2022-11-20T23:46:38;3.00;68.60
42135;DHT22;28312;43.460;11.810;2022-11-20T23:50:43;3.00;68.50
42135;DHT22;28312;43.460;11.810;2022-11-20T23:54:47;3.10;68.50
42135;DHT22;28312;43.460;11.810;2022-11-20T23:58:51;3.00;68.40
